EDT,Max TemperatureF,Mean TemperatureF,Min TemperatureF,Max Dew PointF,MeanDew PointF,Min DewpointF,Max Humidity, Mean Humidity, Min Humidity, Max Sea Level PressureIn, Mean Sea Level PressureIn, Min Sea Level PressureIn, Max VisibilityMiles, Mean VisibilityMiles, Min VisibilityMiles, Max Wind SpeedMPH, Mean Wind SpeedMPH, Max Gust SpeedMPH,PrecipitationIn, CloudCover, Events, WindDirDegrees
2011-10-1,56,47,37,38,35,32,85,67,45,30.26,30.20,30.09,10,10,10,18,10,25,0.00,2,,350
2011-10-2,62,48,34,42,36,32,93,69,38,30.27,30.21,30.13,10,10,10,18,7,24,0.00,0,,336
2011-10-3,70,53,36,47,40,33,90,67,26,30.23,30.18,30.13,10,10,10,15,4,20,0.00,0,,339
2011-10-4,73,57,40,50,43,39,93,74,33,30.32,30.27,30.23,10,8,0,9,2,12,0.00,0,Fog,270
2011-10-5,79,62,44,51,47,42,93,71,30,30.32,30.26,30.22,10,9,2,7,0,9,0.00,0,,315
2011-10-6,80,64,47,53,49,45,89,65,35,30.33,30.29,30.26,10,10,6,9,2,12,0.00,0,,186
2011-10-7,82,67,51,54,51,48,86,60,32,30.40,30.33,30.30,10,10,6,13,5,16,0.00,0,,163
2011-10-8,81,66,51,56,53,49,89,65,39,30.40,30.34,30.31,10,10,5,10,4,14,0.00,0,,171
2011-10-9,82,66,49,57,52,48,96,69,35,30.42,30.35,30.28,10,8,2,7,1,10,0.00,0,,90
2011-10-10,78,64,50,52,50,48,89,65,39,30.30,30.21,30.11,10,9,5,13,3,20,0.00,0,,149
2011-10-11,80,64,48,52,47,43,93,61,28,30.12,30.05,29.98,10,9,5,13,3,18,0.00,0,,154
2011-10-12,75,62,49,53,49,46,89,66,42,29.97,29.86,29.75,10,9,5,12,3,15,0.00,1,,131
2011-10-13,63,57,50,58,54,48,100,89,77,29.72,29.55,29.43,10,3,0,22,5,28,0.71,6,Fog-Rain,159
2011-10-14,57,51,45,54,46,35,94,76,55,29.60,29.49,29.42,10,10,6,23,12,31,0.12,7,Rain,283
2011-10-15,58,53,47,42,37,34,83,55,42,29.83,29.71,29.57,10,10,10,29,16,43,0.04,5,Rain,278
2011-10-16,60,52,44,48,41,36,83,68,47,29.89,29.79,29.70,10,10,10,26,9,36,T,4,Rain,238
2011-10-17,57,49,41,36,33,31,74,54,40,29.83,29.79,29.77,10,10,10,25,11,32,0.00,0,,252
2011-10-18,55,47,38,43,39,34,87,75,55,29.84,29.81,29.79,10,9,5,8,3,20,0.01,3,Rain,186
2011-10-19,48,46,43,45,42,39,93,85,76,29.81,29.59,29.38,10,3,0,26,15,37,0.93,8,Fog-Rain,14
2011-10-20,47,45,43,43,39,38,89,85,81,29.80,29.41,29.25,10,3,1,26,17,36,0.95,8,Rain,334
2011-10-21,48,41,34,41,39,32,89,81,63,30.11,29.97,29.79,10,7,2,14,6,17,T,7,Rain,293
2011-10-22,60,46,31,38,32,29,93,76,36,30.12,30.08,30.04,9,4,0,12,3,18,0.00,0,Fog,200
2011-10-23,65,53,41,46,39,35,79,62,37,30.03,29.96,29.89,8,7,5,14,6,21,0.01,1,Rain,203
2011-10-24,62,54,45,48,43,34,89,72,41,30.14,29.97,29.84,10,7,2,24,10,33,0.32,4,Rain-Thunderstorm,267
2011-10-25,70,55,40,50,40,34,79,57,33,30.16,29.98,29.78,10,9,7,25,9,38,0.01,5,Rain-Thunderstorm,178
2011-10-26,61,53,45,51,45,39,93,83,69,29.93,29.85,29.75,10,5,1,13,7,17,0.01,7,Rain,20
2011-10-27,50,41,32,39,35,30,89,72,50,30.17,30.00,29.91,10,9,5,17,6,22,T,6,Rain,349
2011-10-28,50,39,27,38,32,26,93,84,59,30.24,30.17,30.08,10,5,0,12,3,15,0.03,4,Fog-Rain,196
2011-10-29,55,43,31,38,32,27,86,69,38,30.15,30.06,30.01,10,6,4,18,5,26,T,4,,223
2011-10-30,53,40,27,43,29,25,93,80,38,30.21,30.14,30.06,10,4,0,16,7,23,0.04,3,Fog-Rain,169
2011-10-31,52,42,32,43,38,30,93,82,52,30.19,30.06,30.00,9,4,2,12,2,17,0.04,5,Rain,182